createdAt,value
2023-01-21T00:00:56.065Z,0.44
2023-01-21T00:03:22.609Z,0.44
2023-01-21T00:05:49.148Z,0.45
2023-01-21T00:08:15.558Z,0.27
2023-01-21T00:10:42.091Z,0.33
2023-01-21T00:13:08.506Z,0.40
2023-01-21T00:15:36.241Z,0.47
2023-01-21T00:18:02.652Z,0.39
2023-01-21T00:20:29.103Z,0.44
2023-01-21T00:22:55.675Z,0.27
2023-01-21T00:25:22.104Z,0.11
2023-01-21T00:27:48.601Z,0.14
2023-01-21T00:30:15.297Z,0.01
2023-01-21T00:32:42.006Z,0.18
2023-01-21T00:35:09.169Z,0.04
2023-01-21T00:37:35.615Z,0.24
2023-01-21T00:40:02.027Z,0.31
2023-01-21T00:42:28.692Z,0.28
2023-01-21T00:44:57.431Z,0.37
2023-01-21T00:47:24.516Z,0.40
2023-01-21T00:49:51.143Z,0.43
2023-01-21T00:52:17.587Z,0.33
2023-01-21T00:54:44.388Z,0.26
2023-01-21T00:57:10.905Z,0.17
2023-01-21T00:59:37.555Z,0.23
2023-01-21T01:02:04.078Z,0.31
2023-01-21T01:04:30.469Z,0.31
2023-01-21T01:06:57.221Z,0.34
2023-01-21T01:09:23.683Z,0.40
2023-01-21T01:11:50.102Z,0.43
2023-01-21T01:14:16.515Z,0.58
2023-01-21T01:16:43.036Z,0.54
2023-01-21T01:19:11.387Z,0.51
2023-01-21T01:21:37.807Z,0.40
2023-01-21T01:24:06.092Z,0.40
2023-01-21T01:26:35.448Z,0.44
2023-01-21T01:29:05.985Z,0.44
2023-01-21T01:31:32.447Z,0.38
2023-01-21T01:33:59.215Z,0.40
2023-01-21T01:36:25.899Z,0.41
2023-01-21T01:38:53.765Z,0.33
2023-01-21T01:41:27.292Z,0.37
2023-01-21T01:44:01.036Z,0.39
2023-01-21T01:46:35.907Z,0.41
2023-01-21T01:49:13.487Z,0.38
2023-01-21T01:51:46.141Z,0.50
2023-01-21T01:54:16.780Z,0.29
2023-01-21T01:56:46.488Z,0.41
2023-01-21T01:59:13.147Z,0.50
2023-01-21T02:01:39.685Z,0.43
2023-01-21T02:04:10.072Z,0.48
2023-01-21T02:06:38.386Z,0.51
2023-01-21T02:09:05.337Z,0.48
2023-01-21T02:11:31.724Z,0.38
2023-01-21T02:13:59.847Z,0.51
2023-01-21T02:16:39.148Z,0.43
2023-01-21T02:19:42.166Z,0.33
2023-01-21T02:22:11.480Z,0.28
2023-01-21T02:25:19.127Z,0.16
2023-01-21T02:28:07.125Z,0.20
2023-01-21T02:31:10.437Z,0.23
2023-01-21T02:33:59.418Z,0.27
2023-01-21T02:36:55.703Z,0.41
2023-01-21T02:39:25.162Z,0.50
2023-01-21T02:42:23.762Z,0.58
2023-01-21T02:45:18.495Z,0.60
2023-01-21T02:47:50.923Z,0.67
2023-01-21T02:50:23.251Z,0.72
2023-01-21T02:57:11.316Z,0.65
2023-01-21T02:59:40.105Z,0.84
2023-01-21T03:02:28.156Z,0.86
2023-01-21T03:05:25.326Z,0.89
2023-01-21T03:08:04.872Z,0.88
2023-01-21T03:10:48.016Z,0.98
2023-01-21T03:13:47.366Z,1.06
2023-01-21T03:16:37.068Z,1.06
2023-01-21T03:40:47.279Z,1.08
2023-01-21T03:43:13.691Z,1.09
2023-01-21T03:45:48.180Z,1.06
2023-01-21T03:48:40.497Z,1.10
2023-01-21T03:51:11.851Z,1.22
2023-01-21T03:53:38.280Z,1.16
2023-01-21T03:56:04.967Z,1.20
2023-01-21T03:58:31.419Z,1.21
2023-01-21T04:00:57.901Z,1.22
2023-01-21T04:03:25.252Z,1.25
2023-01-21T04:05:51.686Z,1.22
2023-01-21T04:08:18.125Z,1.22
2023-01-21T04:10:44.530Z,1.19
2023-01-21T04:13:10.995Z,1.15
2023-01-21T04:15:37.389Z,1.23
2023-01-21T04:18:03.828Z,1.25
2023-01-21T04:20:30.213Z,1.24
2023-01-21T04:22:56.609Z,1.18
2023-01-21T04:25:23.004Z,1.14
2023-01-21T04:27:49.392Z,1.12
2023-01-21T04:30:16.431Z,1.13
2023-01-21T04:32:42.959Z,1.20
2023-01-21T04:35:09.567Z,1.12
2023-01-21T04:37:35.978Z,1.04
2023-01-21T04:40:02.453Z,0.99
2023-01-21T04:42:28.923Z,1.03
2023-01-21T04:44:55.304Z,0.93
2023-01-21T04:47:21.748Z,1.01
2023-01-21T04:49:48.794Z,1.03
2023-01-21T04:52:15.316Z,1.08
2023-01-21T04:54:41.710Z,1.02
2023-01-21T04:57:08.112Z,1.04
2023-01-21T04:59:34.523Z,1.00
2023-01-21T05:02:00.949Z,1.07
2023-01-21T05:04:27.356Z,1.03
2023-01-21T05:06:53.797Z,1.12
2023-01-21T05:09:20.201Z,1.03
2023-01-21T05:11:47.224Z,0.93
2023-01-21T05:14:13.638Z,1.03
2023-01-21T05:16:40.083Z,1.07
2023-01-21T05:19:06.578Z,1.04
2023-01-21T05:21:32.960Z,1.04
2023-01-21T05:23:59.405Z,1.04
2023-01-21T05:26:25.792Z,1.07
2023-01-21T05:28:52.179Z,1.07
2023-01-21T05:31:18.655Z,1.03
2023-01-21T05:33:47.075Z,1.11
2023-01-21T05:36:13.452Z,1.08
2023-01-21T05:38:39.979Z,0.99
2023-01-21T05:41:06.355Z,0.96
2023-01-21T05:43:32.753Z,0.98
2023-01-21T05:45:59.218Z,1.05
2023-01-21T05:48:25.632Z,0.91
2023-01-21T05:50:52.175Z,1.01
2023-01-21T05:53:18.781Z,0.98
2023-01-21T05:55:45.352Z,0.89
2023-01-21T05:58:11.782Z,0.95
2023-01-21T06:00:38.198Z,0.92
2023-01-21T06:03:04.619Z,0.84
2023-01-21T06:05:31.012Z,0.84
2023-01-21T06:07:57.419Z,0.95
2023-01-21T06:10:23.825Z,0.87
2023-01-21T06:12:51.860Z,0.94
2023-01-21T06:15:19.652Z,1.01
2023-01-21T06:17:47.508Z,1.07
2023-01-21T06:20:14.233Z,0.99
2023-01-21T06:22:40.752Z,0.94
2023-01-21T06:25:07.300Z,0.98
2023-01-21T06:27:34.173Z,1.04
2023-01-21T06:30:00.553Z,1.08
2023-01-21T06:32:26.991Z,1.09
2023-01-21T06:34:53.385Z,1.06
2023-01-21T06:37:19.776Z,1.11
2023-01-21T06:39:46.221Z,1.03
2023-01-21T06:42:12.592Z,0.99
2023-01-21T06:44:40.046Z,0.95
2023-01-21T06:47:06.532Z,1.02
2023-01-21T06:49:32.948Z,0.87
2023-01-21T06:51:59.425Z,1.03
2023-01-21T06:54:26.160Z,1.01
2023-01-21T06:56:53.110Z,1.02
2023-01-21T06:59:19.564Z,0.93
2023-01-21T07:01:46.064Z,1.01
2023-01-21T07:04:12.465Z,0.97
2023-01-21T07:06:39.030Z,0.97
2023-01-21T07:09:05.947Z,1.02
2023-01-21T07:11:32.485Z,1.05
2023-01-21T07:13:58.906Z,0.99
2023-01-21T07:16:25.482Z,1.07
2023-01-21T07:18:51.919Z,1.05
2023-01-21T07:21:18.609Z,1.06
2023-01-21T07:23:45.143Z,1.08
2023-01-21T07:26:11.540Z,1.09
2023-01-21T07:28:37.970Z,1.06
2023-01-21T07:31:04.698Z,1.01
2023-01-21T07:33:31.188Z,1.02
2023-01-21T07:35:57.605Z,1.05
2023-01-21T07:38:24.007Z,1.04
2023-01-21T07:40:50.658Z,1.10
2023-01-21T07:43:17.688Z,1.00
2023-01-21T07:45:44.984Z,1.05
2023-01-21T07:48:11.609Z,1.15
2023-01-21T07:50:38.020Z,1.16
2023-01-21T07:53:04.683Z,1.14
2023-01-21T07:55:31.409Z,1.17
2023-01-21T07:57:58.594Z,1.11
2023-01-21T08:00:27.058Z,1.16
2023-01-21T08:02:55.031Z,1.22
2023-01-21T08:05:25.276Z,1.15
2023-01-21T08:07:52.200Z,1.12
2023-01-21T08:10:19.777Z,1.17
2023-01-21T08:12:46.205Z,1.11
2023-01-21T08:15:12.642Z,1.14
2023-01-21T08:17:43.330Z,1.25
2023-01-21T08:20:11.309Z,1.25
2023-01-21T08:22:38.098Z,1.33
2023-01-21T08:25:05.712Z,1.32
2023-01-21T08:27:32.655Z,1.30
2023-01-21T08:29:59.060Z,1.37
2023-01-21T08:32:25.492Z,1.45
2023-01-21T08:34:51.934Z,1.48
2023-01-21T08:37:18.339Z,1.54
2023-01-21T08:39:44.766Z,1.54
2023-01-21T08:42:11.260Z,1.54
2023-01-21T08:44:37.686Z,1.48
2023-01-21T08:47:04.148Z,1.41
2023-01-21T08:49:30.601Z,1.48
2023-01-21T08:51:57.291Z,1.46
2023-01-21T08:54:23.677Z,1.60
2023-01-21T08:56:50.086Z,1.69
2023-01-21T08:59:16.918Z,1.60
2023-01-21T09:01:43.551Z,1.70
2023-01-21T09:04:10.480Z,1.54
2023-01-21T09:06:36.936Z,1.65
2023-01-21T09:09:03.498Z,1.71
2023-01-21T09:11:30.349Z,1.70
2023-01-21T09:14:00.556Z,1.81
2023-01-21T09:16:27.085Z,1.73
2023-01-21T09:18:53.558Z,1.76
2023-01-21T09:21:19.956Z,1.85
2023-01-21T09:23:46.343Z,1.77
2023-01-21T09:26:13.977Z,1.92
2023-01-21T09:28:42.311Z,2.02
2023-01-21T09:31:12.456Z,2.00
2023-01-21T09:33:41.011Z,2.02
2023-01-21T09:36:12.261Z,2.12
2023-01-21T09:38:38.707Z,2.07
2023-01-21T09:41:13.409Z,2.19
2023-01-21T09:43:46.208Z,2.08
2023-01-21T09:46:22.556Z,1.97
2023-01-21T09:48:49.459Z,2.14
2023-01-21T09:51:22.600Z,2.12
2023-01-21T09:53:53.651Z,2.14
2023-01-21T09:56:28.044Z,2.09
2023-01-21T09:59:11.132Z,2.17
2023-01-21T10:01:40.987Z,2.27
2023-01-21T10:04:40.378Z,2.18
2023-01-21T10:07:31.139Z,2.13
2023-01-21T10:10:26.792Z,2.26
2023-01-21T10:13:06.222Z,2.28
2023-01-21T10:16:05.092Z,2.32
2023-01-21T10:18:34.632Z,2.35
2023-01-21T10:21:08.529Z,2.38
2023-01-21T10:23:45.823Z,2.43
2023-01-21T10:26:14.441Z,2.46
2023-01-21T10:28:44.495Z,2.45
2023-01-21T10:31:21.401Z,2.42
2023-01-21T10:33:48.121Z,2.43
2023-01-21T10:36:35.691Z,2.49
2023-01-21T10:39:13.738Z,2.51
2023-01-21T10:42:08.158Z,2.53
2023-01-21T10:45:02.673Z,2.44
2023-01-21T10:47:39.160Z,2.56
2023-01-21T10:50:24.003Z,2.47
2023-01-21T10:52:57.125Z,2.59
2023-01-21T10:55:55.598Z,2.67
2023-01-21T10:58:32.688Z,2.62
2023-01-21T11:01:04.550Z,2.58
2023-01-21T11:03:42.267Z,2.78
2023-01-21T11:06:12.438Z,2.81
2023-01-21T11:08:42.820Z,2.84
2023-01-21T11:11:09.538Z,2.88
2023-01-21T11:13:35.981Z,2.98
2023-01-21T11:16:04.396Z,2.99
2023-01-21T11:18:35.480Z,2.95
2023-01-21T11:21:22.994Z,2.93
2023-01-21T11:24:04.980Z,2.80
2023-01-21T11:26:35.939Z,2.87
2023-01-21T11:29:17.263Z,2.97
2023-01-21T11:31:47.551Z,3.10
2023-01-21T11:34:18.649Z,3.10
2023-01-21T11:36:55.630Z,3.20
2023-01-21T11:39:26.957Z,3.17
2023-01-21T11:42:02.469Z,3.25
2023-01-21T11:44:28.864Z,3.23
2023-01-21T11:46:55.250Z,3.22
2023-01-21T11:49:25.463Z,3.25
2023-01-21T11:52:10.003Z,3.25
2023-01-21T11:54:40.357Z,3.22
2023-01-21T11:57:20.648Z,3.32
2023-01-21T11:59:48.618Z,3.34
2023-01-21T12:02:22.314Z,3.44
2023-01-21T12:05:17.688Z,3.35
2023-01-21T12:07:50.059Z,3.43
2023-01-21T12:10:24.468Z,3.43
2023-01-21T12:13:06.395Z,3.49
2023-01-21T12:15:45.542Z,3.28
2023-01-21T12:18:50.992Z,3.40
2023-01-21T12:21:31.544Z,3.43
2023-01-21T12:24:18.074Z,3.41
2023-01-21T12:26:48.284Z,3.44
2023-01-21T12:30:02.018Z,3.50
2023-01-21T12:32:33.683Z,3.49
2023-01-21T12:35:13.474Z,3.52
2023-01-21T12:37:49.154Z,3.57
2023-01-21T12:40:33.143Z,3.65
2023-01-21T12:43:08.447Z,3.57
2023-01-21T12:45:56.329Z,3.65
2023-01-21T12:48:39.843Z,3.70
2023-01-21T12:51:14.862Z,3.58
2023-01-21T12:53:50.630Z,3.65
2023-01-21T12:56:19.791Z,3.58
2023-01-21T12:58:54.667Z,3.73
2023-01-21T13:01:59.001Z,3.74
2023-01-21T13:04:39.185Z,3.75
2023-01-21T13:07:20.540Z,3.84
2023-01-21T13:09:56.106Z,3.76
2023-01-21T13:12:26.679Z,3.82
2023-01-21T13:15:13.863Z,3.84
2023-01-21T13:17:42.867Z,3.80
2023-01-21T13:20:14.967Z,3.82
2023-01-21T13:22:54.641Z,3.84
2023-01-21T13:25:49.857Z,3.76
2023-01-21T13:28:44.705Z,3.89
2023-01-21T13:31:40.625Z,3.87
2023-01-21T13:34:24.988Z,3.91
2023-01-21T13:37:16.749Z,3.98
2023-01-21T13:40:10.801Z,3.89
2023-01-21T13:42:50.075Z,3.91
2023-01-21T13:45:46.300Z,4.00
2023-01-21T13:48:43.860Z,3.85
2023-01-21T13:51:42.608Z,3.90
2023-01-21T13:54:42.761Z,4.04
2023-01-21T13:57:38.378Z,3.97
2023-01-21T14:00:17.726Z,3.89
2023-01-21T14:02:44.199Z,3.95
2023-01-21T14:05:20.247Z,3.91
2023-01-21T14:08:06.834Z,3.96
2023-01-21T14:10:55.755Z,3.98
2023-01-21T14:13:41.938Z,3.90
2023-01-21T14:16:10.970Z,3.85
2023-01-21T14:19:08.764Z,3.96
2023-01-21T14:21:46.744Z,3.88
2023-01-21T14:24:42.456Z,3.91
2023-01-21T14:27:29.776Z,3.92
2023-01-21T14:30:11.175Z,4.01
2023-01-21T14:32:45.343Z,4.00
2023-01-21T14:35:32.900Z,3.96
2023-01-21T14:38:30.359Z,3.96
2023-01-21T14:41:04.909Z,3.99
2023-01-21T14:43:31.233Z,3.92
2023-01-21T14:45:59.708Z,3.84
2023-01-21T14:48:39.016Z,3.96
2023-01-21T14:51:05.415Z,3.96
2023-01-21T14:53:41.754Z,3.91
2023-01-21T14:56:34.823Z,3.98
2023-01-21T14:59:04.748Z,3.81
2023-01-21T15:01:43.591Z,3.89
2023-01-21T15:04:26.502Z,3.83
2023-01-21T15:06:57.587Z,3.84
2023-01-21T15:09:27.289Z,3.87
2023-01-21T15:12:00.447Z,3.88
2023-01-21T15:14:30.710Z,3.90
2023-01-21T15:16:57.187Z,3.83
2023-01-21T15:19:32.533Z,3.97
2023-01-21T15:21:58.867Z,3.92
2023-01-21T15:24:39.260Z,3.86
2023-01-21T15:27:21.883Z,3.97
2023-01-21T15:29:53.969Z,3.99
2023-01-21T15:32:45.447Z,3.92
2023-01-21T15:35:29.323Z,3.81
2023-01-21T15:38:07.654Z,3.93
2023-01-21T15:40:40.760Z,3.92
2023-01-21T15:43:32.266Z,3.93
2023-01-21T15:46:30.003Z,3.92
2023-01-21T15:49:13.801Z,3.91
2023-01-21T15:52:15.849Z,3.83
2023-01-21T15:54:54.058Z,3.62
2023-01-21T15:57:29.247Z,3.50
2023-01-21T16:00:07.075Z,3.43
2023-01-21T16:02:53.916Z,3.46
2023-01-21T16:05:39.646Z,3.43
2023-01-21T16:08:35.377Z,3.38
2023-01-21T16:11:22.403Z,3.17
2023-01-21T16:14:13.936Z,3.08
2023-01-21T16:17:01.935Z,3.12
2023-01-21T16:19:33.442Z,3.17
2023-01-21T16:22:03.039Z,3.09
2023-01-21T16:24:30.044Z,3.13
2023-01-21T16:27:16.449Z,2.89
2023-01-21T16:29:43.043Z,2.83
2023-01-21T16:32:19.450Z,2.83
2023-01-21T16:34:47.246Z,3.00
2023-01-21T16:37:16.640Z,2.93
2023-01-21T16:39:44.088Z,2.69
2023-01-21T16:42:44.006Z,2.51
2023-01-21T16:45:19.213Z,2.51
2023-01-21T16:47:52.853Z,2.60
2023-01-21T16:50:22.477Z,2.58
2023-01-21T16:52:50.156Z,2.65
2023-01-21T16:55:22.614Z,2.57
2023-01-21T16:57:50.962Z,2.51
2023-01-21T17:00:29.419Z,2.55
2023-01-21T17:02:57.054Z,2.59
2023-01-21T17:05:27.293Z,2.53
2023-01-21T17:08:04.251Z,2.51
2023-01-21T17:10:50.644Z,2.45
2023-01-21T17:13:17.368Z,2.39
2023-01-21T17:15:59.779Z,2.49
2023-01-21T17:18:31.268Z,2.58
2023-01-21T17:20:57.604Z,2.65
2023-01-21T17:23:29.440Z,2.53
2023-01-21T17:26:04.111Z,2.60
2023-01-21T17:28:37.761Z,2.57
2023-01-21T17:31:16.413Z,2.54
2023-01-21T17:33:43.817Z,2.39
2023-01-21T17:36:15.443Z,2.52
2023-01-21T17:38:44.742Z,2.42
2023-01-21T17:41:29.459Z,2.44
2023-01-21T17:43:56.638Z,2.40
2023-01-21T17:46:24.378Z,2.46
2023-01-21T17:48:54.728Z,2.45
2023-01-21T17:51:25.021Z,2.52
2023-01-21T17:53:56.023Z,2.50
2023-01-21T17:56:34.934Z,2.53
2023-01-21T17:59:04.422Z,2.56
2023-01-21T18:01:31.520Z,2.60
2023-01-21T18:03:58.302Z,2.48
2023-01-21T18:06:28.955Z,2.41
2023-01-21T18:09:02.561Z,2.48
2023-01-21T18:11:29.044Z,2.41
2023-01-21T18:13:55.440Z,2.44
2023-01-21T18:16:21.932Z,2.47
2023-01-21T18:18:50.334Z,2.44
2023-01-21T18:21:19.885Z,2.42
2023-01-21T18:23:47.492Z,2.39
2023-01-21T18:26:24.905Z,2.43
2023-01-21T18:28:51.305Z,2.38
2023-01-21T18:31:17.814Z,2.37
2023-01-21T18:33:44.308Z,2.38
2023-01-21T18:36:11.813Z,2.44
2023-01-21T18:38:38.210Z,2.50
2023-01-21T18:41:05.789Z,2.52
2023-01-21T18:43:32.195Z,2.47
2023-01-21T18:45:58.911Z,2.56
2023-01-21T18:48:29.728Z,2.47
2023-01-21T18:50:56.196Z,2.46
2023-01-21T18:53:22.648Z,2.43
2023-01-21T18:55:53.574Z,2.44
2023-01-21T18:58:20.068Z,2.47
2023-01-21T19:00:46.604Z,2.47
2023-01-21T19:03:13.819Z,2.49
2023-01-21T19:05:42.836Z,2.46
2023-01-21T19:08:15.783Z,2.48
2023-01-21T19:10:42.316Z,2.58
2023-01-21T19:13:12.492Z,2.48
2023-01-21T19:15:39.006Z,2.48
2023-01-21T19:18:10.941Z,2.50
2023-01-21T19:20:41.285Z,2.51
2023-01-21T19:23:15.505Z,2.58
2023-01-21T19:25:44.797Z,2.55
2023-01-21T19:28:12.340Z,2.51
2023-01-21T19:30:39.187Z,2.57
2023-01-21T19:33:05.587Z,2.52
2023-01-21T19:35:35.536Z,2.55
2023-01-21T19:38:05.741Z,2.52
2023-01-21T19:40:32.179Z,2.56
2023-01-21T19:42:58.567Z,2.44
2023-01-21T19:45:28.677Z,2.34
2023-01-21T19:47:55.750Z,2.35
2023-01-21T19:50:25.085Z,2.37
2023-01-21T19:52:53.049Z,2.32
2023-01-21T19:55:34.549Z,2.25
2023-01-21T19:58:03.702Z,2.35
2023-01-21T20:00:33.988Z,2.31
2023-01-21T20:03:01.347Z,2.21
2023-01-21T20:05:29.880Z,2.26
2023-01-21T20:07:56.338Z,2.27
2023-01-21T20:10:25.429Z,2.30
2023-01-21T20:12:52.853Z,2.29
2023-01-21T20:15:22.980Z,2.36
2023-01-21T20:17:53.842Z,2.32
2023-01-21T20:20:23.968Z,2.27
2023-01-21T20:22:50.499Z,2.29
2023-01-21T20:25:19.420Z,2.28
2023-01-21T20:27:56.436Z,2.34
2023-01-21T20:30:28.641Z,2.38
2023-01-21T20:32:56.004Z,2.35
2023-01-21T20:35:26.839Z,2.36
2023-01-21T20:37:55.618Z,2.37
2023-01-21T20:40:25.194Z,2.47
2023-01-21T20:42:52.831Z,2.47
2023-01-21T20:45:22.925Z,2.51
2023-01-21T20:47:52.002Z,2.41
2023-01-21T20:50:27.351Z,2.42
2023-01-21T20:52:54.340Z,2.49
2023-01-21T20:55:24.034Z,2.52
2023-01-21T20:57:50.673Z,2.48
2023-01-21T21:00:24.056Z,2.59
2023-01-21T21:02:50.501Z,2.55
2023-01-21T21:05:18.284Z,2.54
2023-01-21T21:07:44.970Z,2.58
2023-01-21T21:10:20.210Z,2.60
2023-01-21T21:12:47.719Z,2.63
2023-01-21T21:15:14.967Z,2.61
2023-01-21T21:17:41.668Z,2.62
2023-01-21T21:20:15.951Z,2.62
2023-01-21T21:22:42.544Z,2.66
2023-01-21T21:25:14.092Z,2.65
2023-01-21T21:27:40.684Z,2.75
2023-01-21T21:30:11.455Z,2.76
2023-01-21T21:32:37.860Z,2.75
2023-01-21T21:35:19.721Z,2.73
2023-01-21T21:37:46.200Z,2.70
2023-01-21T21:40:12.826Z,2.81
2023-01-21T21:42:58.045Z,2.76
2023-01-21T21:45:24.502Z,2.81
2023-01-21T21:48:09.746Z,2.82
2023-01-21T21:50:36.322Z,2.79
2023-01-21T21:53:03.259Z,2.77
2023-01-21T21:55:32.414Z,2.76
2023-01-21T21:57:58.855Z,2.71
2023-01-21T22:00:25.431Z,2.62
2023-01-21T22:02:52.375Z,2.61
2023-01-21T22:05:19.135Z,2.71
2023-01-21T22:07:45.709Z,2.84
2023-01-21T22:10:12.089Z,2.66
2023-01-21T22:12:38.662Z,2.66
2023-01-21T22:15:05.431Z,2.63
2023-01-21T22:17:32.949Z,2.63
2023-01-21T22:19:59.527Z,2.64
2023-01-21T22:22:25.958Z,2.63
2023-01-21T22:24:54.549Z,2.65
2023-01-21T22:27:21.168Z,2.66
2023-01-21T22:29:47.568Z,2.71
2023-01-21T22:32:15.891Z,2.66
2023-01-21T22:34:43.931Z,2.74
2023-01-21T22:37:10.454Z,2.65
2023-01-21T22:39:36.911Z,2.68
2023-01-21T22:42:05.014Z,2.67
2023-01-21T22:44:31.463Z,2.60
2023-01-21T22:46:57.909Z,2.58
2023-01-21T22:49:24.311Z,2.59
2023-01-21T22:51:50.744Z,2.65
2023-01-21T22:54:17.143Z,2.63
2023-01-21T22:56:53.329Z,2.70
2023-01-21T22:59:19.962Z,2.71
2023-01-21T23:01:48.554Z,2.65
2023-01-21T23:04:15.721Z,2.62
2023-01-21T23:06:44.547Z,2.58
2023-01-21T23:09:15.108Z,2.62
2023-01-21T23:11:42.028Z,2.55
2023-01-21T23:14:09.826Z,2.50
2023-01-21T23:16:36.265Z,2.59
2023-01-21T23:19:02.894Z,2.54
2023-01-21T23:21:29.295Z,2.55
2023-01-21T23:23:55.732Z,2.51
2023-01-21T23:26:22.776Z,2.55
2023-01-21T23:28:54.484Z,2.50
2023-01-21T23:31:20.987Z,2.50
2023-01-21T23:33:49.818Z,2.56
2023-01-21T23:36:16.432Z,2.52
2023-01-21T23:38:42.919Z,2.56
2023-01-21T23:41:11.931Z,2.46
2023-01-21T23:43:38.856Z,2.50
2023-01-21T23:46:06.740Z,2.59
2023-01-21T23:48:33.288Z,2.58
2023-01-21T23:51:08.302Z,2.53
2023-01-21T23:53:34.783Z,2.56
2023-01-21T23:56:10.672Z,2.53
2023-01-21T23:58:37.070Z,2.52
